createdAt,value
2023-02-16T00:00:19.539Z,7.12
2023-02-16T00:02:47.716Z,7.18
2023-02-16T00:05:25.575Z,7.21
2023-02-16T00:07:55.005Z,7.24
2023-02-16T00:10:23.072Z,7.20
2023-02-16T00:13:12.309Z,7.17
2023-02-16T00:15:40.160Z,7.12
2023-02-16T00:18:18.010Z,7.09
2023-02-16T00:20:46.380Z,7.03
2023-02-16T00:23:13.725Z,7.05
2023-02-16T00:25:41.226Z,6.96
2023-02-16T00:28:16.031Z,6.83
2023-02-16T00:30:46.091Z,6.62
2023-02-16T00:33:20.628Z,6.59
2023-02-16T00:35:48.381Z,6.63
2023-02-16T00:38:17.122Z,6.63
2023-02-16T00:40:44.873Z,6.58
2023-02-16T00:43:25.360Z,6.58
2023-02-16T00:45:53.468Z,6.63
2023-02-16T00:48:21.707Z,6.67
2023-02-16T00:50:49.200Z,6.58
2023-02-16T00:53:18.483Z,6.69
2023-02-16T00:55:46.166Z,6.62
2023-02-16T00:58:23.481Z,6.62
2023-02-16T01:00:58.230Z,6.52
2023-02-16T01:03:28.363Z,6.52
2023-02-16T01:06:39.026Z,6.58
2023-02-16T01:09:36.092Z,6.58
2023-02-16T01:12:08.213Z,6.46
2023-02-16T01:14:38.681Z,6.51
2023-02-16T01:17:06.028Z,6.36
2023-02-16T01:19:34.577Z,6.39
2023-02-16T01:22:01.938Z,6.29
2023-02-16T01:24:29.272Z,6.28
2023-02-16T01:26:56.602Z,6.24
2023-02-16T01:29:23.992Z,6.24
2023-02-16T01:31:53.272Z,6.26
2023-02-16T01:34:20.723Z,6.29
2023-02-16T01:36:48.862Z,6.16
2023-02-16T01:39:19.082Z,6.05
2023-02-16T01:41:55.751Z,6.01
2023-02-16T01:44:41.839Z,5.95
2023-02-16T01:47:27.876Z,6.04
2023-02-16T01:49:55.370Z,6.07
2023-02-16T01:52:34.562Z,6.06
2023-02-16T01:55:20.589Z,5.95
2023-02-16T01:58:00.565Z,5.92
2023-02-16T02:00:56.758Z,5.86
2023-02-16T02:03:46.219Z,5.81
2023-02-16T02:06:22.430Z,5.59
2023-02-16T02:09:06.160Z,5.46
2023-02-16T02:11:40.954Z,5.22
2023-02-16T02:14:11.374Z,5.26
2023-02-16T02:16:39.114Z,5.30
2023-02-16T02:19:06.494Z,5.31
2023-02-16T02:22:19.303Z,5.33
2023-02-16T02:25:27.990Z,5.39
2023-02-16T02:28:20.040Z,5.39
2023-02-16T02:30:57.050Z,5.31
2023-02-16T02:33:45.822Z,5.40
2023-02-16T02:36:42.026Z,5.52
2023-02-16T02:39:34.284Z,5.56
2023-02-16T02:42:42.455Z,5.53
2023-02-16T02:45:18.586Z,5.45
2023-02-16T02:47:48.346Z,5.39
2023-02-16T02:50:35.197Z,5.19
2023-02-16T02:53:08.335Z,5.09
2023-02-16T02:56:00.492Z,5.11
2023-02-16T02:58:48.140Z,5.19
2023-02-16T03:01:18.661Z,5.26
2023-02-16T03:03:51.183Z,5.25
2023-02-16T03:06:30.072Z,5.27
2023-02-16T03:09:06.181Z,5.29
2023-02-16T03:11:51.952Z,5.23
2023-02-16T03:14:22.086Z,5.26
2023-02-16T03:17:11.523Z,5.27
2023-02-16T03:20:01.653Z,5.30
2023-02-16T03:22:48.491Z,5.35
2023-02-16T03:25:35.048Z,5.37
2023-02-16T03:28:25.270Z,5.41
2023-02-16T03:30:55.306Z,5.51
2023-02-16T03:33:23.704Z,5.36
2023-02-16T03:35:52.505Z,5.28
2023-02-16T03:38:20.684Z,5.26
2023-02-16T03:40:49.959Z,5.29
2023-02-16T03:43:17.263Z,5.28
2023-02-16T03:45:45.159Z,5.27
2023-02-16T03:48:13.089Z,5.25
2023-02-16T03:50:40.656Z,5.28
2023-02-16T03:53:08.290Z,5.31
2023-02-16T03:55:38.253Z,5.35
2023-02-16T03:58:07.581Z,5.34
2023-02-16T04:00:36.313Z,5.28
2023-02-16T04:03:04.640Z,5.24
2023-02-16T04:05:33.222Z,5.22
2023-02-16T04:08:01.461Z,5.14
2023-02-16T04:10:28.917Z,5.11
2023-02-16T04:12:56.228Z,5.13
2023-02-16T04:15:26.729Z,5.14
2023-02-16T04:17:54.769Z,5.10
2023-02-16T04:20:28.663Z,5.14
2023-02-16T04:22:56.832Z,5.09
2023-02-16T04:25:24.192Z,5.09
2023-02-16T04:27:52.336Z,5.06
2023-02-16T04:30:25.519Z,5.08
2023-02-16T04:32:52.952Z,5.10
2023-02-16T04:35:20.832Z,5.13
2023-02-16T04:37:48.225Z,5.13
2023-02-16T04:40:18.080Z,5.06
2023-02-16T04:42:46.243Z,4.98
2023-02-16T04:45:13.764Z,4.82
2023-02-16T04:47:41.592Z,4.85
2023-02-16T04:50:10.245Z,4.90
2023-02-16T04:52:38.026Z,4.87
2023-02-16T04:55:07.342Z,4.90
2023-02-16T04:57:34.744Z,4.91
2023-02-16T05:00:02.206Z,4.99
2023-02-16T05:02:35.207Z,4.97
2023-02-16T05:05:02.484Z,4.90
2023-02-16T05:07:30.019Z,4.96
2023-02-16T05:09:57.319Z,5.03
2023-02-16T05:12:43.485Z,5.04
2023-02-16T05:15:10.869Z,4.94
2023-02-16T05:17:38.239Z,4.85
2023-02-16T05:20:06.611Z,4.87
2023-02-16T05:22:34.513Z,4.93
2023-02-16T05:25:02.084Z,4.97
2023-02-16T05:27:30.732Z,4.97
2023-02-16T05:29:58.912Z,4.91
2023-02-16T05:32:26.789Z,4.86
2023-02-16T05:34:54.128Z,4.86
2023-02-16T05:37:21.488Z,4.87
2023-02-16T05:39:48.811Z,4.86
2023-02-16T05:42:16.144Z,4.77
2023-02-16T05:44:43.442Z,4.78
2023-02-16T05:47:11.329Z,4.82
2023-02-16T05:49:38.677Z,4.75
2023-02-16T05:52:06.001Z,4.81
2023-02-16T05:54:33.385Z,4.85
2023-02-16T05:57:01.788Z,4.92
2023-02-16T05:59:29.223Z,4.88
2023-02-16T06:01:56.628Z,4.90
2023-02-16T06:04:24.020Z,4.81
2023-02-16T06:06:51.373Z,4.74
2023-02-16T06:09:18.669Z,4.66
2023-02-16T06:11:46.460Z,4.62
2023-02-16T06:14:20.756Z,4.62
2023-02-16T06:16:51.443Z,4.67
2023-02-16T06:19:20.318Z,4.72
2023-02-16T06:21:48.039Z,4.78
2023-02-16T06:24:15.923Z,4.83
2023-02-16T06:26:43.308Z,4.88
2023-02-16T06:29:11.119Z,4.93
2023-02-16T06:31:38.618Z,4.96
2023-02-16T06:34:06.319Z,4.79
2023-02-16T06:36:34.231Z,4.91
2023-02-16T06:39:01.622Z,4.98
2023-02-16T06:41:31.963Z,5.02
2023-02-16T06:44:00.867Z,5.03
2023-02-16T06:46:28.798Z,5.07
2023-02-16T06:48:56.535Z,5.26
2023-02-16T06:51:24.255Z,5.45
2023-02-16T06:53:51.796Z,5.74
2023-02-16T06:56:19.240Z,6.02
2023-02-16T06:58:46.537Z,6.41
2023-02-16T07:01:14.178Z,6.65
2023-02-16T07:03:41.606Z,6.60
2023-02-16T07:06:09.043Z,6.43
2023-02-16T07:08:36.414Z,6.22
2023-02-16T07:11:04.356Z,6.41
2023-02-16T07:13:37.761Z,6.39
2023-02-16T07:16:06.472Z,6.36
2023-02-16T07:18:34.698Z,6.72
2023-02-16T07:21:02.701Z,6.84
2023-02-16T07:23:30.549Z,6.86
2023-02-16T07:25:59.215Z,7.06
2023-02-16T07:28:26.551Z,7.12
2023-02-16T07:30:54.058Z,7.26
2023-02-16T07:33:21.409Z,7.32
2023-02-16T07:35:50.280Z,7.51
2023-02-16T07:38:17.671Z,7.30
2023-02-16T07:40:45.076Z,7.42
2023-02-16T07:43:12.481Z,7.61
2023-02-16T07:45:39.925Z,7.68
2023-02-16T07:48:08.905Z,8.04
2023-02-16T07:50:37.621Z,8.43
2023-02-16T07:53:05.309Z,8.71
2023-02-16T07:55:32.666Z,9.14
2023-02-16T07:58:00.211Z,9.59
2023-02-16T08:00:27.644Z,10.11
2023-02-16T08:02:55.100Z,10.37
2023-02-16T08:05:23.717Z,10.99
2023-02-16T08:07:51.082Z,11.35
2023-02-16T08:10:18.821Z,11.12
2023-02-16T08:12:46.574Z,11.57
2023-02-16T08:15:14.039Z,11.22
2023-02-16T08:17:41.528Z,11.77
2023-02-16T08:20:09.788Z,12.20
2023-02-16T08:22:37.599Z,12.17
2023-02-16T08:25:07.173Z,12.37
2023-02-16T08:27:35.742Z,12.98
2023-02-16T08:30:03.730Z,13.17
2023-02-16T08:32:33.551Z,13.39
2023-02-16T08:35:00.915Z,13.41
2023-02-16T08:37:28.726Z,12.92
2023-02-16T08:39:56.214Z,13.79
2023-02-16T08:42:23.541Z,13.38
2023-02-16T08:44:51.029Z,12.95
2023-02-16T08:47:20.413Z,13.17
2023-02-16T08:49:47.871Z,12.93
2023-02-16T08:52:15.486Z,13.39
2023-02-16T08:54:42.761Z,13.19
2023-02-16T08:57:10.218Z,13.60
2023-02-16T08:59:37.611Z,13.61
2023-02-16T09:02:05.136Z,13.89
2023-02-16T09:04:32.523Z,14.70
2023-02-16T09:07:01.020Z,15.18
2023-02-16T09:09:28.742Z,16.90
2023-02-16T09:11:57.719Z,15.62
2023-02-16T09:14:25.145Z,14.82
2023-02-16T09:16:52.955Z,14.66
2023-02-16T09:19:21.992Z,14.57
2023-02-16T09:21:50.947Z,14.17
2023-02-16T09:24:19.134Z,13.91
2023-02-16T09:26:46.685Z,13.91
2023-02-16T09:29:14.734Z,14.34
2023-02-16T09:31:44.331Z,14.31
2023-02-16T09:34:20.371Z,14.22
2023-02-16T09:36:48.742Z,13.55
2023-02-16T09:39:17.119Z,13.42
2023-02-16T09:42:13.477Z,13.67
2023-02-16T09:44:40.837Z,14.28
2023-02-16T09:47:26.210Z,14.61
2023-02-16T09:49:56.383Z,15.28
2023-02-16T09:52:40.384Z,15.77
2023-02-16T09:55:13.402Z,16.91
2023-02-16T09:58:04.306Z,15.26
2023-02-16T10:00:34.311Z,15.34
2023-02-16T10:04:00.940Z,15.55
2023-02-16T10:06:48.362Z,17.17
2023-02-16T10:09:19.608Z,17.78
2023-02-16T10:11:54.427Z,16.62
2023-02-16T10:14:41.378Z,15.61
2023-02-16T10:17:37.706Z,15.63
2023-02-16T10:20:17.189Z,15.77
2023-02-16T10:22:58.057Z,14.81
2023-02-16T10:25:44.264Z,14.84
2023-02-16T10:28:14.780Z,14.98
2023-02-16T10:30:54.925Z,14.93
2023-02-16T10:33:30.833Z,15.08
2023-02-16T10:36:09.904Z,15.02
2023-02-16T10:39:06.591Z,15.21
2023-02-16T10:41:44.146Z,15.35
2023-02-16T10:44:19.801Z,15.52
2023-02-16T10:46:55.527Z,15.51
2023-02-16T10:49:25.460Z,15.97
2023-02-16T10:51:55.318Z,15.77
2023-02-16T10:54:27.362Z,14.79
2023-02-16T10:56:59.513Z,14.59
2023-02-16T10:59:33.952Z,14.49
2023-02-16T11:02:06.652Z,14.34
2023-02-16T11:04:39.862Z,14.15
2023-02-16T11:07:10.008Z,13.96
2023-02-16T11:09:38.508Z,14.11
2023-02-16T11:12:23.525Z,14.30
2023-02-16T11:14:58.570Z,14.66
2023-02-16T11:17:26.922Z,14.84
2023-02-16T11:20:35.291Z,14.51
2023-02-16T11:23:30.489Z,14.66
2023-02-16T11:26:10.307Z,14.47
2023-02-16T11:28:50.892Z,14.85
2023-02-16T11:31:32.008Z,15.16
2023-02-16T11:34:12.014Z,15.01
2023-02-16T11:36:45.132Z,14.80
2023-02-16T11:39:24.084Z,14.98
2023-02-16T11:41:55.200Z,14.86
2023-02-16T11:44:35.746Z,14.69
2023-02-16T11:47:08.308Z,14.34
2023-02-16T11:49:41.101Z,14.41
2023-02-16T11:52:30.478Z,14.68
2023-02-16T11:55:00.738Z,15.02
2023-02-16T11:57:31.784Z,14.70
2023-02-16T12:00:01.592Z,14.95
2023-02-16T12:03:00.656Z,14.79
2023-02-16T12:05:52.896Z,14.82
2023-02-16T12:08:51.445Z,15.28
2023-02-16T12:11:28.191Z,15.25
2023-02-16T12:14:23.897Z,15.07
2023-02-16T12:17:03.334Z,15.41
2023-02-16T12:19:30.632Z,15.32
2023-02-16T12:22:16.478Z,15.07
2023-02-16T12:25:05.174Z,15.06
2023-02-16T12:27:38.745Z,15.20
2023-02-16T12:30:12.467Z,15.20
2023-02-16T12:32:48.787Z,15.16
2023-02-16T12:35:22.027Z,15.01
2023-02-16T12:38:00.408Z,15.14
2023-02-16T12:40:39.732Z,15.36
2023-02-16T12:43:13.054Z,15.14
2023-02-16T12:45:44.028Z,15.57
2023-02-16T12:48:11.333Z,15.49
2023-02-16T12:50:42.089Z,15.36
2023-02-16T12:53:26.913Z,14.93
2023-02-16T12:56:02.116Z,14.98
2023-02-16T12:58:33.823Z,15.26
2023-02-16T13:01:12.090Z,15.58
2023-02-16T13:03:50.542Z,15.49
2023-02-16T13:06:40.307Z,15.36
2023-02-16T13:09:26.292Z,15.15
2023-02-16T13:12:04.863Z,14.87
2023-02-16T13:14:35.264Z,15.02
2023-02-16T13:17:10.258Z,15.07
2023-02-16T13:19:37.620Z,15.03
2023-02-16T13:22:12.776Z,15.07
2023-02-16T13:24:51.008Z,15.07
2023-02-16T13:27:24.015Z,14.81
2023-02-16T13:30:02.650Z,14.92
2023-02-16T13:32:30.288Z,14.79
2023-02-16T13:35:39.263Z,14.66
2023-02-16T13:38:25.763Z,14.79
2023-02-16T13:41:06.596Z,14.67
2023-02-16T13:43:37.240Z,14.73
2023-02-16T13:46:12.207Z,14.66
2023-02-16T13:48:47.312Z,14.69
2023-02-16T13:51:20.944Z,14.97
2023-02-16T13:54:00.294Z,14.85
2023-02-16T13:56:30.684Z,14.77
2023-02-16T13:59:00.148Z,14.85
2023-02-16T14:01:38.860Z,14.53
2023-02-16T14:04:12.799Z,14.31
2023-02-16T14:06:42.793Z,14.20
2023-02-16T14:09:16.312Z,14.27
2023-02-16T14:12:03.076Z,14.21
2023-02-16T14:14:35.010Z,14.11
2023-02-16T14:17:14.623Z,14.02
2023-02-16T14:19:57.044Z,13.90
2023-02-16T14:22:33.273Z,13.90
2023-02-16T14:25:03.809Z,13.95
2023-02-16T14:27:53.107Z,13.83
2023-02-16T14:30:38.388Z,13.91
2023-02-16T14:33:22.494Z,13.95
2023-02-16T14:35:58.927Z,13.87
2023-02-16T14:38:33.012Z,13.89
2023-02-16T14:41:03.115Z,13.98
2023-02-16T14:43:40.437Z,13.87
2023-02-16T14:46:22.098Z,13.82
2023-02-16T14:49:28.360Z,13.74
2023-02-16T14:52:01.473Z,13.86
2023-02-16T14:54:59.184Z,13.91
2023-02-16T14:57:48.113Z,14.01
2023-02-16T15:00:31.297Z,13.83
2023-02-16T15:03:04.471Z,13.79
2023-02-16T15:05:37.990Z,13.78
2023-02-16T15:08:25.382Z,13.58
2023-02-16T15:10:56.694Z,13.47
2023-02-16T15:13:28.076Z,13.52
2023-02-16T15:15:59.279Z,13.52
2023-02-16T15:18:43.984Z,13.48
2023-02-16T15:21:24.097Z,13.33
2023-02-16T15:23:55.190Z,13.22
2023-02-16T15:26:28.252Z,13.16
2023-02-16T15:28:59.141Z,13.04
2023-02-16T15:31:39.692Z,13.02
2023-02-16T15:34:12.177Z,13.04
2023-02-16T15:36:42.637Z,13.05
2023-02-16T15:39:37.908Z,12.96
2023-02-16T15:42:31.785Z,12.89
2023-02-16T15:44:59.232Z,12.84
2023-02-16T15:47:27.347Z,12.66
2023-02-16T15:49:55.129Z,12.70
2023-02-16T15:52:37.871Z,12.62
2023-02-16T15:55:09.160Z,12.52
2023-02-16T15:57:38.457Z,12.40
2023-02-16T16:00:18.212Z,12.36
2023-02-16T16:02:48.442Z,12.30
2023-02-16T16:05:33.050Z,12.27
2023-02-16T16:08:01.709Z,12.21
2023-02-16T16:10:32.874Z,12.06
2023-02-16T16:13:04.193Z,11.99
2023-02-16T16:15:34.085Z,11.88
2023-02-16T16:18:02.672Z,11.85
2023-02-16T16:20:37.296Z,11.72
2023-02-16T16:23:25.911Z,11.71
2023-02-16T16:25:54.700Z,11.56
2023-02-16T16:28:24.889Z,11.50
2023-02-16T16:31:12.273Z,11.43
2023-02-16T16:33:56.740Z,11.30
2023-02-16T16:36:36.727Z,11.25
2023-02-16T16:39:14.361Z,11.21
2023-02-16T16:41:42.465Z,11.16
2023-02-16T16:44:48.181Z,11.05
2023-02-16T16:47:28.639Z,11.03
2023-02-16T16:50:11.046Z,10.98
2023-02-16T16:52:43.129Z,10.93
2023-02-16T16:55:19.749Z,10.87
2023-02-16T16:57:52.722Z,10.78
2023-02-16T17:00:21.847Z,10.73
2023-02-16T17:02:49.251Z,10.62
2023-02-16T17:05:16.818Z,10.58
2023-02-16T17:07:48.993Z,10.54
2023-02-16T17:10:17.869Z,10.46
2023-02-16T17:12:47.553Z,10.34
2023-02-16T17:15:43.973Z,10.30
2023-02-16T17:18:16.669Z,10.29
2023-02-16T17:20:44.666Z,10.27
2023-02-16T17:23:13.437Z,10.26
2023-02-16T17:25:41.875Z,10.21
2023-02-16T17:28:11.060Z,10.18
2023-02-16T17:30:39.324Z,10.09
2023-02-16T17:33:07.305Z,10.02
2023-02-16T17:35:37.207Z,9.98
2023-02-16T17:38:23.293Z,9.95
2023-02-16T17:40:55.017Z,9.89
2023-02-16T17:43:23.847Z,9.88
2023-02-16T17:45:52.763Z,9.85
2023-02-16T17:48:30.373Z,9.83
2023-02-16T17:50:58.267Z,9.81
2023-02-16T17:53:27.546Z,9.74
2023-02-16T17:55:57.498Z,9.73
2023-02-16T17:58:25.885Z,9.74
2023-02-16T18:00:53.418Z,9.66
2023-02-16T18:03:22.950Z,9.74
2023-02-16T18:05:50.816Z,9.82
2023-02-16T18:08:18.206Z,9.70
2023-02-16T18:10:48.709Z,9.63
2023-02-16T18:13:16.529Z,9.53
2023-02-16T18:15:47.605Z,9.58
2023-02-16T18:18:17.317Z,9.61
2023-02-16T18:20:45.251Z,9.49
2023-02-16T18:23:13.329Z,9.40
2023-02-16T18:25:43.083Z,9.25
2023-02-16T18:28:15.927Z,9.28
2023-02-16T18:30:43.371Z,9.17
2023-02-16T18:33:10.760Z,9.19
2023-02-16T18:35:38.256Z,9.11
2023-02-16T18:38:05.618Z,9.07
2023-02-16T18:40:32.934Z,9.03
2023-02-16T18:43:00.364Z,8.93
2023-02-16T18:45:27.840Z,8.85
2023-02-16T18:47:55.232Z,8.84
2023-02-16T18:50:22.572Z,8.78
2023-02-16T18:52:50.127Z,8.79
2023-02-16T18:55:18.023Z,8.81
2023-02-16T18:57:45.452Z,8.83
2023-02-16T19:00:14.881Z,8.82
2023-02-16T19:02:44.965Z,8.79
2023-02-16T19:05:12.314Z,8.82
2023-02-16T19:07:39.641Z,8.73
2023-02-16T19:10:10.297Z,8.59
2023-02-16T19:12:38.697Z,8.53
2023-02-16T19:15:07.212Z,8.41
2023-02-16T19:17:35.173Z,8.42
2023-02-16T19:20:02.600Z,8.27
2023-02-16T19:22:29.965Z,8.28
2023-02-16T19:24:57.340Z,8.25
2023-02-16T19:27:26.460Z,8.17
2023-02-16T19:29:53.811Z,8.24
2023-02-16T19:32:21.148Z,8.25
2023-02-16T19:34:48.574Z,8.16
2023-02-16T19:37:16.051Z,8.16
2023-02-16T19:39:43.464Z,8.16
2023-02-16T19:42:10.778Z,8.09
2023-02-16T19:44:40.604Z,8.16
2023-02-16T19:47:08.366Z,7.98
2023-02-16T19:49:36.631Z,7.99
2023-02-16T19:52:05.005Z,7.98
2023-02-16T19:54:34.957Z,8.07
2023-02-16T19:57:03.747Z,8.08
2023-02-16T19:59:32.969Z,7.97
2023-02-16T20:02:00.530Z,7.89
2023-02-16T20:04:28.195Z,7.83
2023-02-16T20:06:56.467Z,7.83
2023-02-16T20:09:24.797Z,7.68
2023-02-16T20:11:52.336Z,7.68
2023-02-16T20:14:19.814Z,7.67
2023-02-16T20:16:47.893Z,7.50
2023-02-16T20:19:15.442Z,7.55
2023-02-16T20:21:44.202Z,7.46
2023-02-16T20:24:12.231Z,7.42
2023-02-16T20:26:43.132Z,7.54
2023-02-16T20:29:12.738Z,7.68
2023-02-16T20:31:59.103Z,7.60
2023-02-16T20:34:30.435Z,7.58
2023-02-16T20:36:58.455Z,7.53
2023-02-16T20:39:26.028Z,7.61
2023-02-16T20:41:53.538Z,7.63
2023-02-16T20:44:22.609Z,7.61
2023-02-16T20:46:51.168Z,7.56
2023-02-16T20:49:18.965Z,7.49
2023-02-16T20:51:46.411Z,7.28
2023-02-16T20:54:13.724Z,7.17
2023-02-16T20:56:41.072Z,7.09
2023-02-16T20:59:08.758Z,7.21
2023-02-16T21:01:40.839Z,7.28
2023-02-16T21:04:09.237Z,7.36
2023-02-16T21:06:40.103Z,7.43
2023-02-16T21:09:08.834Z,7.40
2023-02-16T21:11:37.662Z,7.48
2023-02-16T21:14:07.024Z,7.55
2023-02-16T21:16:34.727Z,7.56
2023-02-16T21:19:04.103Z,7.63
2023-02-16T21:21:33.030Z,7.52
2023-02-16T21:24:19.037Z,7.60
2023-02-16T21:26:46.432Z,7.53
2023-02-16T21:29:17.083Z,7.46
2023-02-16T21:31:44.541Z,7.41
2023-02-16T21:34:11.969Z,7.41
2023-02-16T21:36:39.581Z,7.46
2023-02-16T21:39:06.957Z,7.39
2023-02-16T21:41:34.339Z,7.32
2023-02-16T21:44:08.751Z,7.23
2023-02-16T21:46:40.425Z,7.18
2023-02-16T21:49:12.090Z,7.14
2023-02-16T21:51:40.741Z,7.15
2023-02-16T21:54:12.211Z,7.13
2023-02-16T21:56:48.558Z,7.17
2023-02-16T21:59:18.228Z,7.21
2023-02-16T22:01:50.800Z,7.22
2023-02-16T22:04:23.006Z,7.17
2023-02-16T22:06:51.053Z,7.13
2023-02-16T22:09:23.287Z,7.16
2023-02-16T22:11:50.550Z,7.19
2023-02-16T22:14:18.514Z,7.18
2023-02-16T22:16:47.483Z,7.34
2023-02-16T22:19:17.598Z,7.29
2023-02-16T22:21:46.922Z,7.33
2023-02-16T22:24:17.050Z,7.35
2023-02-16T22:26:45.866Z,7.42
2023-02-16T22:29:13.714Z,7.38
2023-02-16T22:31:46.438Z,7.34
2023-02-16T22:34:21.044Z,7.33
2023-02-16T22:36:49.013Z,7.25
2023-02-16T22:39:17.947Z,7.11
2023-02-16T22:41:45.329Z,7.01
2023-02-16T22:44:12.861Z,6.91
2023-02-16T22:46:40.286Z,6.89
2023-02-16T22:49:09.019Z,6.93
2023-02-16T22:51:37.490Z,6.95
2023-02-16T22:54:06.315Z,6.92
2023-02-16T22:56:34.236Z,6.95
2023-02-16T22:59:01.597Z,7.02
2023-02-16T23:01:31.486Z,6.94
2023-02-16T23:04:00.972Z,7.00
2023-02-16T23:06:34.217Z,7.10
2023-02-16T23:09:08.750Z,7.00
2023-02-16T23:11:36.519Z,7.04
2023-02-16T23:14:04.785Z,6.83
2023-02-16T23:16:32.682Z,6.75
2023-02-16T23:19:00.412Z,6.70
2023-02-16T23:21:30.394Z,6.57
2023-02-16T23:23:58.991Z,6.51
2023-02-16T23:26:28.835Z,6.46
2023-02-16T23:28:59.925Z,6.51
2023-02-16T23:31:30.374Z,6.60
2023-02-16T23:33:59.421Z,6.64
2023-02-16T23:36:27.706Z,6.67
2023-02-16T23:38:58.463Z,6.68
2023-02-16T23:41:25.918Z,6.71
2023-02-16T23:43:53.368Z,6.80
2023-02-16T23:46:20.706Z,6.93
2023-02-16T23:48:48.187Z,6.91
2023-02-16T23:51:15.509Z,6.82
2023-02-16T23:53:44.114Z,6.70
2023-02-16T23:56:23.651Z,6.70
2023-02-16T23:58:52.313Z,6.79
